createdAt,value
2019-03-20T00:00:47.254Z,62.60
2019-03-20T00:03:15.476Z,62.80
2019-03-20T00:05:43.697Z,63.00
2019-03-20T00:08:11.923Z,63.70
2019-03-20T00:10:40.143Z,64.00
2019-03-20T00:13:08.372Z,64.00
2019-03-20T00:15:36.592Z,64.70
2019-03-20T00:18:04.825Z,64.20
2019-03-20T00:20:33.108Z,63.80
2019-03-20T00:23:01.340Z,64.10
2019-03-20T00:25:29.561Z,64.00
2019-03-20T00:27:58.112Z,62.80
2019-03-20T00:30:26.593Z,63.10
2019-03-20T00:32:54.808Z,65.00
2019-03-20T00:35:23.076Z,64.60
2019-03-20T00:37:51.292Z,64.50
2019-03-20T00:40:19.522Z,64.00
2019-03-20T00:42:47.792Z,65.30
2019-03-20T00:45:17.923Z,64.70
2019-03-20T00:47:46.140Z,64.50
2019-03-20T00:50:16.384Z,63.90
2019-03-20T00:52:44.600Z,63.70
2019-03-20T00:55:13.771Z,64.70
2019-03-20T00:57:42.057Z,65.40
2019-03-20T01:00:20.240Z,65.20
2019-03-20T01:02:48.460Z,66.10
2019-03-20T01:05:16.686Z,66.80
2019-03-20T01:07:44.901Z,66.80
2019-03-20T01:10:21.644Z,65.90
2019-03-20T01:12:49.864Z,67.10
2019-03-20T01:15:18.511Z,66.80
2019-03-20T01:17:46.988Z,66.10
2019-03-20T01:20:16.960Z,65.60
2019-03-20T01:22:45.184Z,65.90
2019-03-20T01:25:14.273Z,66.10
2019-03-20T01:27:42.489Z,66.30
2019-03-20T01:30:36.248Z,68.10
2019-03-20T01:33:10.685Z,68.40
2019-03-20T01:35:39.163Z,67.50
2019-03-20T01:38:08.135Z,66.10
2019-03-20T01:40:36.345Z,66.20
2019-03-20T01:43:04.637Z,67.10
2019-03-20T01:45:32.864Z,68.10
2019-03-20T01:48:01.084Z,68.40
2019-03-20T01:50:29.312Z,68.40
2019-03-20T01:52:57.525Z,67.50
2019-03-20T01:55:25.760Z,66.30
2019-03-20T01:57:53.968Z,66.00
2019-03-20T02:00:22.204Z,66.50
2019-03-20T02:02:50.420Z,66.90
2019-03-20T02:05:18.648Z,66.60
2019-03-20T02:07:46.864Z,66.20
2019-03-20T02:10:16.324Z,66.10
2019-03-20T02:12:44.546Z,67.10
2019-03-20T02:15:14.609Z,67.50
2019-03-20T02:17:42.914Z,67.50
2019-03-20T02:20:13.383Z,67.50
2019-03-20T02:22:41.596Z,67.20
2019-03-20T02:25:10.860Z,67.00
2019-03-20T02:27:39.381Z,66.20
2019-03-20T02:30:10.871Z,66.50
2019-03-20T02:32:39.084Z,68.20
2019-03-20T02:35:07.313Z,68.90
2019-03-20T02:37:35.523Z,68.90
2019-03-20T02:40:05.892Z,68.70
2019-03-20T02:42:34.113Z,68.30
2019-03-20T02:45:02.349Z,67.80
2019-03-20T02:47:30.575Z,68.10
2019-03-20T02:49:58.781Z,67.90
2019-03-20T02:52:27.009Z,67.90
2019-03-20T02:54:55.231Z,67.80
2019-03-20T02:57:23.454Z,67.70
2019-03-20T02:59:51.672Z,67.20
2019-03-20T03:02:19.901Z,67.30
2019-03-20T03:04:48.116Z,69.30
2019-03-20T03:07:16.346Z,68.00
2019-03-20T03:09:44.561Z,67.10
2019-03-20T03:12:12.804Z,67.40
2019-03-20T03:14:41.009Z,67.80
2019-03-20T03:17:09.518Z,67.90
2019-03-20T03:19:37.736Z,68.10
2019-03-20T03:22:05.960Z,68.10
2019-03-20T03:24:53.613Z,68.00
2019-03-20T03:27:21.838Z,69.70
2019-03-20T03:29:50.061Z,68.20
2019-03-20T03:32:18.297Z,68.60
2019-03-20T03:34:46.510Z,68.90
2019-03-20T03:37:15.309Z,69.50
2019-03-20T03:39:43.532Z,70.20
2019-03-20T03:42:11.753Z,70.60
2019-03-20T03:44:39.968Z,71.40
2019-03-20T03:47:08.201Z,71.10
2019-03-20T03:49:36.429Z,70.90
2019-03-20T03:52:04.650Z,71.30
2019-03-20T03:54:32.868Z,69.60
2019-03-20T03:57:01.106Z,69.70
2019-03-20T03:59:29.328Z,69.40
2019-03-20T04:01:57.554Z,69.40
2019-03-20T04:04:25.782Z,70.80
2019-03-20T04:06:54.296Z,71.70
2019-03-20T04:09:22.515Z,72.00
2019-03-20T04:11:50.745Z,71.40
2019-03-20T04:14:18.960Z,71.30
2019-03-20T04:16:47.194Z,70.40
2019-03-20T04:19:15.405Z,68.90
2019-03-20T04:21:43.633Z,69.90
2019-03-20T04:24:11.854Z,70.80
2019-03-20T04:26:40.066Z,70.00
2019-03-20T04:29:08.297Z,69.90
2019-03-20T04:31:36.857Z,70.80
2019-03-20T04:34:05.172Z,71.50
2019-03-20T04:36:33.394Z,71.70
2019-03-20T04:39:01.617Z,71.70
2019-03-20T04:41:29.861Z,71.90
2019-03-20T04:43:58.081Z,70.70
2019-03-20T04:46:26.344Z,71.40
2019-03-20T04:48:54.572Z,71.40
2019-03-20T04:51:42.234Z,70.50
2019-03-20T04:54:10.449Z,70.30
2019-03-20T04:56:38.702Z,69.70
2019-03-20T04:59:06.968Z,70.00
2019-03-20T05:01:35.206Z,69.80
2019-03-20T05:04:03.416Z,70.30
2019-03-20T05:06:31.644Z,70.20
2019-03-20T05:08:59.864Z,69.80
2019-03-20T05:11:28.091Z,70.60
2019-03-20T05:13:56.312Z,72.40
2019-03-20T05:16:24.886Z,72.20
2019-03-20T05:18:53.100Z,72.00
2019-03-20T05:21:21.338Z,72.10
2019-03-20T05:23:49.552Z,71.30
2019-03-20T05:26:17.780Z,70.50
2019-03-20T05:28:45.995Z,71.70
2019-03-20T05:31:14.223Z,73.50
2019-03-20T05:33:42.441Z,72.90
2019-03-20T05:36:10.669Z,73.40
2019-03-20T05:38:38.884Z,71.10
2019-03-20T05:41:07.169Z,71.40
2019-03-20T05:43:35.389Z,71.20
2019-03-20T05:46:03.619Z,71.30
2019-03-20T05:48:31.908Z,70.80
2019-03-20T05:51:00.136Z,72.30
2019-03-20T05:53:28.616Z,72.60
2019-03-20T05:55:56.841Z,72.30
2019-03-20T05:58:25.065Z,71.70
2019-03-20T06:00:53.287Z,71.40
2019-03-20T06:03:21.507Z,71.40
2019-03-20T06:05:49.721Z,70.90
2019-03-20T06:08:18.276Z,71.20
2019-03-20T06:10:46.511Z,71.50
2019-03-20T06:13:14.732Z,71.20
2019-03-20T06:15:42.948Z,71.90
2019-03-20T06:18:11.182Z,72.10
2019-03-20T06:20:39.396Z,72.80
2019-03-20T06:23:07.636Z,74.00
2019-03-20T06:25:35.861Z,73.40
2019-03-20T06:28:04.388Z,73.00
2019-03-20T06:30:32.609Z,72.20
2019-03-20T06:33:00.841Z,71.80
2019-03-20T06:35:29.525Z,72.90
2019-03-20T06:37:57.749Z,73.30
2019-03-20T06:40:25.969Z,71.60
2019-03-20T06:42:55.337Z,70.30
2019-03-20T06:45:23.767Z,70.70
2019-03-20T06:47:51.988Z,72.10
2019-03-20T06:50:21.853Z,72.90
2019-03-20T06:52:50.085Z,72.90
2019-03-20T06:55:18.302Z,71.80
2019-03-20T06:57:46.529Z,72.50
2019-03-20T07:00:43.943Z,73.40
2019-03-20T07:03:24.621Z,72.50
2019-03-20T07:05:59.073Z,71.50
2019-03-20T07:08:33.469Z,72.00
2019-03-20T07:11:11.450Z,72.90
2019-03-20T07:13:39.683Z,75.10
2019-03-20T07:16:07.901Z,73.60
2019-03-20T07:18:36.133Z,76.50
2019-03-20T07:21:04.465Z,71.70
2019-03-20T07:23:32.701Z,70.40
2019-03-20T07:26:00.916Z,70.50
2019-03-20T07:28:29.207Z,70.60
2019-03-20T07:30:57.417Z,70.50
2019-03-20T07:33:25.644Z,70.00
2019-03-20T07:35:53.933Z,68.70
2019-03-20T07:38:22.164Z,69.20
2019-03-20T07:40:50.381Z,69.20
2019-03-20T07:43:18.670Z,68.40
2019-03-20T07:45:46.888Z,66.80
2019-03-20T07:48:21.998Z,66.70
2019-03-20T07:50:45.064Z,65.70
2019-03-20T07:53:13.288Z,64.70
2019-03-20T07:55:41.504Z,64.80
2019-03-20T07:58:09.732Z,64.10
2019-03-20T08:00:37.948Z,65.00
2019-03-20T08:03:06.178Z,64.60
2019-03-20T08:05:34.393Z,66.20
2019-03-20T08:08:07.385Z,65.60
2019-03-20T08:10:32.869Z,65.50
2019-03-20T08:13:01.103Z,64.20
2019-03-20T08:15:29.317Z,62.80
2019-03-20T08:17:57.552Z,63.30
2019-03-20T08:20:28.016Z,61.50
2019-03-20T08:22:56.240Z,61.20
2019-03-20T08:25:24.460Z,60.30
2019-03-20T08:27:52.696Z,58.80
2019-03-20T08:30:20.908Z,60.30
2019-03-20T08:32:49.125Z,59.10
2019-03-20T08:35:17.357Z,57.90
2019-03-20T08:37:45.650Z,56.70
2019-03-20T08:40:15.018Z,56.50
2019-03-20T08:45:29.672Z,56.00
2019-03-20T08:47:58.528Z,56.00
2019-03-20T08:50:26.743Z,55.50
2019-03-20T08:52:54.992Z,54.60
2019-03-20T08:55:23.271Z,54.30
2019-03-20T08:57:51.528Z,54.80
2019-03-20T09:00:23.642Z,53.90
2019-03-20T09:02:51.863Z,54.50
2019-03-20T09:05:20.084Z,53.10
2019-03-20T09:07:48.315Z,53.00
2019-03-20T09:10:20.560Z,52.80
2019-03-20T09:12:48.827Z,51.40
2019-03-20T09:15:18.024Z,50.30
2019-03-20T09:17:46.295Z,49.40
2019-03-20T09:20:15.968Z,50.70
2019-03-20T09:22:44.192Z,47.70
2019-03-20T09:25:22.100Z,49.40
2019-03-20T09:27:50.321Z,49.10
2019-03-20T09:30:27.965Z,46.30
2019-03-20T09:32:56.185Z,46.00
2019-03-20T09:35:24.421Z,46.20
2019-03-20T09:37:52.912Z,47.70
2019-03-20T09:40:24.698Z,46.50
2019-03-20T09:42:53.159Z,42.70
2019-03-20T09:45:22.320Z,43.60
2019-03-20T09:47:50.549Z,43.00
2019-03-20T09:50:26.908Z,42.50
2019-03-20T09:52:55.140Z,42.40
2019-03-20T09:55:23.367Z,39.90
2019-03-20T09:57:51.588Z,40.90
2019-03-20T10:00:24.524Z,39.90
2019-03-20T10:02:52.756Z,40.00
2019-03-20T10:05:20.984Z,38.60
2019-03-20T10:07:49.205Z,36.00
2019-03-20T10:10:21.713Z,35.30
2019-03-20T10:12:50.040Z,38.00
2019-03-20T10:15:25.263Z,35.50
2019-03-20T10:17:54.127Z,35.30
2019-03-20T10:20:22.727Z,37.20
2019-03-20T10:22:50.931Z,35.60
2019-03-20T10:25:19.180Z,36.10
2019-03-20T10:27:47.717Z,35.40
2019-03-20T10:30:23.410Z,35.70
2019-03-20T10:32:51.684Z,35.10
2019-03-20T10:35:19.956Z,34.30
2019-03-20T10:37:48.532Z,34.70
2019-03-20T10:40:21.065Z,34.10
2019-03-20T10:42:49.319Z,33.50
2019-03-20T10:45:18.236Z,32.60
2019-03-20T10:47:46.488Z,34.10
2019-03-20T10:50:21.451Z,35.50
2019-03-20T10:52:49.766Z,34.50
2019-03-20T10:55:18.112Z,34.20
2019-03-20T10:57:46.732Z,35.90
2019-03-20T11:00:17.397Z,33.60
2019-03-20T11:02:45.732Z,34.60
2019-03-20T11:05:14.272Z,34.00
2019-03-20T11:07:42.554Z,32.70
2019-03-20T11:10:13.995Z,33.00
2019-03-20T11:12:42.252Z,32.60
2019-03-20T11:15:12.964Z,34.80
2019-03-20T11:17:41.226Z,31.60
2019-03-20T11:20:12.040Z,31.50
2019-03-20T11:22:40.369Z,35.30
2019-03-20T11:25:11.392Z,32.40
2019-03-20T11:27:39.648Z,33.00
2019-03-20T11:30:14.298Z,29.90
2019-03-20T11:32:42.557Z,30.70
2019-03-20T11:35:10.828Z,32.20
2019-03-20T11:37:39.081Z,31.10
2019-03-20T11:40:19.352Z,30.30
2019-03-20T11:42:47.681Z,33.00
2019-03-20T11:45:15.956Z,32.80
2019-03-20T11:47:44.217Z,33.40
2019-03-20T11:50:15.751Z,31.30
2019-03-20T11:52:44.012Z,30.90
2019-03-20T11:55:12.283Z,32.80
2019-03-20T11:57:40.540Z,32.30
2019-03-20T12:00:12.117Z,31.90
2019-03-20T12:02:40.372Z,28.50
2019-03-20T12:05:08.812Z,31.60
2019-03-20T12:07:37.072Z,32.80
2019-03-20T12:10:11.496Z,30.40
2019-03-20T12:12:39.756Z,29.50
2019-03-20T12:15:10.163Z,29.00
2019-03-20T12:17:38.420Z,30.70
2019-03-20T12:20:12.692Z,29.90
2019-03-20T12:22:40.948Z,28.00
2019-03-20T12:25:12.832Z,28.70
2019-03-20T12:27:41.097Z,30.00
2019-03-20T12:30:12.826Z,30.00
2019-03-20T12:33:00.901Z,29.90
2019-03-20T12:35:32.429Z,30.40
2019-03-20T12:38:00.736Z,30.10
2019-03-20T12:40:30.349Z,29.30
2019-03-20T12:42:59.123Z,29.30
2019-03-20T12:45:29.296Z,29.80
2019-03-20T12:47:57.552Z,29.70
2019-03-20T12:50:25.822Z,29.50
2019-03-20T12:52:54.383Z,28.90
2019-03-20T12:55:22.652Z,28.50
2019-03-20T12:57:50.914Z,29.30
2019-03-20T13:00:23.552Z,29.50
2019-03-20T13:02:52.097Z,28.00
2019-03-20T13:05:20.642Z,29.00
2019-03-20T13:07:49.160Z,27.30
2019-03-20T13:10:19.929Z,28.20
2019-03-20T13:12:48.188Z,27.80
2019-03-20T13:15:22.368Z,27.10
2019-03-20T13:17:50.800Z,29.60
2019-03-20T13:20:19.072Z,28.70
2019-03-20T13:23:05.564Z,27.20
2019-03-20T13:25:33.832Z,26.90
2019-03-20T13:28:02.097Z,27.10
2019-03-20T13:30:39.338Z,26.80
2019-03-20T13:33:07.605Z,25.70
2019-03-20T13:35:36.257Z,26.60
2019-03-20T13:38:04.549Z,27.70
2019-03-20T13:40:32.824Z,27.70
2019-03-20T13:43:01.083Z,27.10
2019-03-20T13:45:29.349Z,26.20
2019-03-20T13:47:57.612Z,28.00
2019-03-20T13:50:25.885Z,27.90
2019-03-20T13:52:54.144Z,27.10
2019-03-20T13:55:22.420Z,27.00
2019-03-20T13:57:50.676Z,26.70
2019-03-20T14:00:26.017Z,28.60
2019-03-20T14:02:54.272Z,28.30
2019-03-20T14:05:22.553Z,28.40
2019-03-20T14:07:50.808Z,26.70
2019-03-20T14:10:25.401Z,25.80
2019-03-20T14:12:52.813Z,26.10
2019-03-20T14:15:21.086Z,26.70
2019-03-20T14:17:49.339Z,26.20
2019-03-20T14:20:22.800Z,26.20
2019-03-20T14:22:51.059Z,27.10
2019-03-20T14:25:19.342Z,27.20
2019-03-20T14:27:47.667Z,26.00
2019-03-20T14:30:29.740Z,26.20
2019-03-20T14:32:58.173Z,26.00
2019-03-20T14:35:26.474Z,24.70
2019-03-20T14:37:54.731Z,25.50
2019-03-20T14:40:36.248Z,26.20
2019-03-20T14:43:02.092Z,26.00
2019-03-20T14:45:30.429Z,25.10
2019-03-20T14:47:58.689Z,24.70
2019-03-20T14:50:30.694Z,24.70
2019-03-20T14:52:59.524Z,25.70
2019-03-20T14:55:27.800Z,25.90
2019-03-20T14:57:56.090Z,25.70
2019-03-20T15:00:28.244Z,26.60
2019-03-20T15:02:56.564Z,25.20
2019-03-20T15:05:24.832Z,26.60
2019-03-20T15:07:53.192Z,25.00
2019-03-20T15:10:25.552Z,25.20
2019-03-20T15:12:54.343Z,27.10
2019-03-20T15:15:28.607Z,24.80
2019-03-20T15:17:56.864Z,25.90
2019-03-20T15:20:25.136Z,26.40
2019-03-20T15:22:53.404Z,25.70
2019-03-20T15:25:21.655Z,25.70
2019-03-20T15:27:49.936Z,27.50
2019-03-20T15:30:20.463Z,26.40
2019-03-20T15:32:48.732Z,27.30
2019-03-20T15:35:16.995Z,26.30
2019-03-20T15:37:45.337Z,26.40
2019-03-20T15:40:16.860Z,26.90
2019-03-20T15:42:45.134Z,26.20
2019-03-20T15:45:17.889Z,26.20
2019-03-20T15:47:46.337Z,26.50
2019-03-20T15:50:17.197Z,26.60
2019-03-20T15:52:45.469Z,27.30
2019-03-20T15:55:22.676Z,27.80
2019-03-20T15:57:50.940Z,27.10
2019-03-20T16:00:20.841Z,27.90
2019-03-20T16:02:53.887Z,27.60
2019-03-20T16:05:22.153Z,27.80
2019-03-20T16:07:50.713Z,28.10
2019-03-20T16:10:21.112Z,27.50
2019-03-20T16:12:49.390Z,27.70
2019-03-20T16:15:21.608Z,28.10
2019-03-20T16:17:49.908Z,28.10
2019-03-20T16:20:18.165Z,28.90
2019-03-20T16:22:46.443Z,28.00
2019-03-20T16:25:18.978Z,28.40
2019-03-20T16:27:47.247Z,28.40
2019-03-20T16:30:30.239Z,28.20
2019-03-20T16:32:58.508Z,28.50
2019-03-20T16:35:26.775Z,30.00
2019-03-20T16:37:55.048Z,28.30
2019-03-20T16:40:26.099Z,28.40
2019-03-20T16:42:53.688Z,29.70
2019-03-20T16:45:26.634Z,29.10
2019-03-20T16:47:54.903Z,28.50
2019-03-20T16:50:23.168Z,29.00
2019-03-20T16:52:51.435Z,29.50
2019-03-20T16:55:19.692Z,28.40
2019-03-20T16:57:47.975Z,29.90
2019-03-20T17:00:21.767Z,29.40
2019-03-20T17:02:50.031Z,30.50
2019-03-20T17:05:18.341Z,30.10
2019-03-20T17:07:46.693Z,30.50
2019-03-20T17:10:20.828Z,30.00
2019-03-20T17:12:49.103Z,30.40
2019-03-20T17:15:34.712Z,30.00
2019-03-20T17:18:02.992Z,31.60
2019-03-20T17:20:31.247Z,31.10
2019-03-20T17:22:59.520Z,32.40
2019-03-20T17:25:27.779Z,33.40
2019-03-20T17:27:56.054Z,36.50
2019-03-20T17:30:27.113Z,35.90
2019-03-20T17:32:55.002Z,35.60
2019-03-20T17:35:23.256Z,36.30
2019-03-20T17:37:51.528Z,37.20
2019-03-20T17:40:23.832Z,35.50
2019-03-20T17:42:52.103Z,33.90
2019-03-20T17:45:27.368Z,34.70
2019-03-20T17:47:56.001Z,35.60
2019-03-20T17:50:33.828Z,36.40
2019-03-20T17:53:02.245Z,37.00
2019-03-20T17:55:30.645Z,37.20
2019-03-20T17:57:59.089Z,36.60
2019-03-20T18:00:33.057Z,37.40
2019-03-20T18:03:01.400Z,38.40
2019-03-20T18:05:29.666Z,38.80
2019-03-20T18:07:57.932Z,40.30
2019-03-20T18:10:26.197Z,39.70
2019-03-20T18:12:54.744Z,40.60
2019-03-20T18:15:23.001Z,40.10
2019-03-20T18:17:51.272Z,40.00
2019-03-20T18:20:22.206Z,41.30
2019-03-20T18:22:50.476Z,41.30
2019-03-20T18:25:18.741Z,42.00
2019-03-20T18:27:47.014Z,43.30
2019-03-20T18:30:32.341Z,41.80
2019-03-20T18:33:00.604Z,41.20
2019-03-20T18:35:28.863Z,40.80
2019-03-20T18:37:57.135Z,41.80
2019-03-20T18:40:26.541Z,41.90
2019-03-20T18:42:54.759Z,42.50
2019-03-20T18:45:23.961Z,41.60
2019-03-20T18:47:52.235Z,42.60
2019-03-20T18:50:23.648Z,41.90
2019-03-20T18:52:51.903Z,42.50
2019-03-20T18:55:20.297Z,43.50
2019-03-20T18:57:48.607Z,42.40
2019-03-20T19:00:21.857Z,41.60
2019-03-20T19:02:51.222Z,43.80
2019-03-20T19:05:25.474Z,43.00
2019-03-20T19:07:53.771Z,42.50
2019-03-20T19:10:22.076Z,41.60
2019-03-20T19:12:50.380Z,42.00
2019-03-20T19:15:18.613Z,42.70
2019-03-20T19:17:46.835Z,41.90
2019-03-20T19:20:15.629Z,40.90
2019-03-20T19:22:44.125Z,42.70
2019-03-20T19:25:16.868Z,42.80
2019-03-20T19:27:45.072Z,42.60
2019-03-20T19:30:16.308Z,42.40
2019-03-20T19:32:44.530Z,42.80
2019-03-20T19:35:12.951Z,43.50
2019-03-20T19:37:41.179Z,42.70
2019-03-20T19:40:14.212Z,43.20
2019-03-20T19:42:42.431Z,43.70
2019-03-20T19:45:13.088Z,43.40
2019-03-20T19:47:41.638Z,43.90
2019-03-20T19:50:14.868Z,44.10
2019-03-20T19:52:43.104Z,44.10
2019-03-20T19:55:13.096Z,44.00
2019-03-20T19:57:41.321Z,44.70
2019-03-20T20:00:21.876Z,44.30
2019-03-20T20:02:50.096Z,45.30
2019-03-20T20:05:18.328Z,44.90
2019-03-20T20:07:46.549Z,44.70
2019-03-20T20:10:16.035Z,44.70
2019-03-20T20:12:44.259Z,44.80
2019-03-20T20:15:24.465Z,44.20
2019-03-20T20:17:52.685Z,44.40
2019-03-20T20:20:35.228Z,45.00
2019-03-20T20:23:04.495Z,44.40
2019-03-20T20:25:33.069Z,44.60
2019-03-20T20:28:01.285Z,44.40
2019-03-20T20:30:29.849Z,44.60
2019-03-20T20:32:58.340Z,44.80
2019-03-20T20:35:26.809Z,44.80
2019-03-20T20:37:55.044Z,44.90
2019-03-20T20:40:47.328Z,44.80
2019-03-20T20:43:15.544Z,44.70
2019-03-20T20:45:43.773Z,45.50
2019-03-20T20:48:11.991Z,45.10
2019-03-20T20:50:40.242Z,44.60
2019-03-20T20:53:08.440Z,45.00
2019-03-20T20:55:36.672Z,45.10
2019-03-20T20:58:04.899Z,46.40
2019-03-20T21:00:33.130Z,46.20
2019-03-20T21:03:01.375Z,45.70
2019-03-20T21:05:29.596Z,45.70
2019-03-20T21:07:57.812Z,45.50
2019-03-20T21:10:26.212Z,45.40
2019-03-20T21:12:57.150Z,46.00
2019-03-20T21:15:42.888Z,46.30
2019-03-20T21:18:34.863Z,46.10
2019-03-20T21:21:03.093Z,46.50
2019-03-20T21:23:40.735Z,46.50
2019-03-20T21:26:15.173Z,45.90
2019-03-20T21:28:52.386Z,45.80
2019-03-20T21:31:29.937Z,46.10
2019-03-20T21:34:19.552Z,46.20
2019-03-20T21:37:05.861Z,46.10
2019-03-20T21:39:34.084Z,45.60
2019-03-20T21:42:23.997Z,46.70
2019-03-20T21:45:20.128Z,45.20
2019-03-20T21:47:48.361Z,45.70
2019-03-20T21:50:34.712Z,45.50
2019-03-20T21:53:02.940Z,46.60
2019-03-20T21:56:07.561Z,46.30
2019-03-20T21:58:38.540Z,46.50
2019-03-20T22:01:21.675Z,46.60
2019-03-20T22:03:49.889Z,47.20
2019-03-20T22:06:36.717Z,47.30
2019-03-20T22:09:07.752Z,47.10
2019-03-20T22:11:36.939Z,47.50
2019-03-20T22:14:10.801Z,46.50
2019-03-20T22:16:58.760Z,46.50
2019-03-20T22:19:54.300Z,47.40
2019-03-20T22:22:25.812Z,47.10
2019-03-20T22:25:23.041Z,47.10
2019-03-20T22:28:23.095Z,46.90
2019-03-20T22:30:51.324Z,46.80
2019-03-20T22:33:56.529Z,46.90
2019-03-20T22:36:25.025Z,46.40
2019-03-20T22:39:11.593Z,49.20
2019-03-20T22:41:45.825Z,47.90
2019-03-20T22:44:14.100Z,48.20
2019-03-20T22:47:11.420Z,48.50
2019-03-20T22:49:42.920Z,49.40
2019-03-20T22:52:29.204Z,49.10
2019-03-20T22:55:17.617Z,49.00
2019-03-20T22:57:51.738Z,49.00
2019-03-20T23:00:19.952Z,48.80
2019-03-20T23:02:55.940Z,48.30
2019-03-20T23:05:24.175Z,48.40
2019-03-20T23:07:52.428Z,47.70
2019-03-20T23:10:20.641Z,47.60
2019-03-20T23:12:48.873Z,47.60
2019-03-20T23:15:18.928Z,48.30
2019-03-20T23:17:47.156Z,48.00
2019-03-20T23:20:24.982Z,48.20
2019-03-20T23:22:53.208Z,48.40
2019-03-20T23:25:21.420Z,48.60
2019-03-20T23:27:49.914Z,49.20
2019-03-20T23:30:23.984Z,50.20
2019-03-20T23:32:52.208Z,49.50
2019-03-20T23:35:20.439Z,50.60
2019-03-20T23:37:48.669Z,51.70
2019-03-20T23:40:17.057Z,53.80
2019-03-20T23:42:48.235Z,53.20
2019-03-20T23:45:18.986Z,52.90
2019-03-20T23:47:50.497Z,53.20
2019-03-20T23:50:18.716Z,53.70
2019-03-20T23:52:46.936Z,52.30
2019-03-20T23:55:15.152Z,52.00
2019-03-20T23:57:43.384Z,51.90
